sensor_id;sensor_type;location;lat;lon;timestamp;temperature;humidity
14850;DHT22;7517;48.400;11.770;2023-04-06T00:01:06;5.10;55.10
14850;DHT22;7517;48.400;11.770;2023-04-06T00:03:33;5.10;55.20
14850;DHT22;7517;48.400;11.770;2023-04-06T00:06:01;5.10;55.30
14850;DHT22;7517;48.400;11.770;2023-04-06T00:08:30;5.10;55.10
14850;DHT22;7517;48.400;11.770;2023-04-06T00:10:57;5.10;55.10
14850;DHT22;7517;48.400;11.770;2023-04-06T00:13:24;5.10;55.00
14850;DHT22;7517;48.400;11.770;2023-04-06T00:15:52;5.00;55.00
14850;DHT22;7517;48.400;11.770;2023-04-06T00:18:19;5.00;55.00
14850;DHT22;7517;48.400;11.770;2023-04-06T00:20:46;5.00;55.10
14850;DHT22;7517;48.400;11.770;2023-04-06T00:23:14;4.90;55.20
14850;DHT22;7517;48.400;11.770;2023-04-06T00:25:42;4.90;55.40
14850;DHT22;7517;48.400;11.770;2023-04-06T00:28:10;4.90;55.60
14850;DHT22;7517;48.400;11.770;2023-04-06T00:30:37;4.90;55.60
14850;DHT22;7517;48.400;11.770;2023-04-06T00:33:05;4.90;55.60
14850;DHT22;7517;48.400;11.770;2023-04-06T00:35:32;4.90;55.80
14850;DHT22;7517;48.400;11.770;2023-04-06T00:37:59;4.90;56.00
14850;DHT22;7517;48.400;11.770;2023-04-06T00:40:27;4.90;56.00
14850;DHT22;7517;48.400;11.770;2023-04-06T00:42:56;4.90;55.80
14850;DHT22;7517;48.400;11.770;2023-04-06T00:45:23;4.90;55.70
14850;DHT22;7517;48.400;11.770;2023-04-06T00:47:51;4.80;55.70
14850;DHT22;7517;48.400;11.770;2023-04-06T00:50:18;4.80;55.70
14850;DHT22;7517;48.400;11.770;2023-04-06T00:52:46;4.80;55.60
14850;DHT22;7517;48.400;11.770;2023-04-06T00:55:13;4.80;55.50
14850;DHT22;7517;48.400;11.770;2023-04-06T00:57:41;4.70;55.50
14850;DHT22;7517;48.400;11.770;2023-04-06T01:00:10;4.70;55.50
14850;DHT22;7517;48.400;11.770;2023-04-06T01:02:39;4.70;55.70
14850;DHT22;7517;48.400;11.770;2023-04-06T01:05:07;4.60;55.70
14850;DHT22;7517;48.400;11.770;2023-04-06T01:07:34;4.60;55.90
14850;DHT22;7517;48.400;11.770;2023-04-06T01:10:02;4.60;56.00
14850;DHT22;7517;48.400;11.770;2023-04-06T01:12:30;4.60;56.10
14850;DHT22;7517;48.400;11.770;2023-04-06T01:15:00;4.60;56.30
14850;DHT22;7517;48.400;11.770;2023-04-06T01:17:29;4.50;56.30
14850;DHT22;7517;48.400;11.770;2023-04-06T01:19:56;4.50;56.30
14850;DHT22;7517;48.400;11.770;2023-04-06T01:22:27;4.60;56.40
14850;DHT22;7517;48.400;11.770;2023-04-06T01:24:55;4.50;56.40
14850;DHT22;7517;48.400;11.770;2023-04-06T01:27:24;4.50;56.30
14850;DHT22;7517;48.400;11.770;2023-04-06T01:29:53;4.50;56.30
14850;DHT22;7517;48.400;11.770;2023-04-06T01:32:21;4.50;56.20
14850;DHT22;7517;48.400;11.770;2023-04-06T01:34:48;4.50;56.20
14850;DHT22;7517;48.400;11.770;2023-04-06T01:37:16;4.50;56.20
14850;DHT22;7517;48.400;11.770;2023-04-06T01:39:45;4.50;56.20
14850;DHT22;7517;48.400;11.770;2023-04-06T01:42:12;4.40;56.20
14850;DHT22;7517;48.400;11.770;2023-04-06T01:44:39;4.40;56.70
14850;DHT22;7517;48.400;11.770;2023-04-06T01:47:07;4.40;56.40
14850;DHT22;7517;48.400;11.770;2023-04-06T01:49:34;4.40;56.50
14850;DHT22;7517;48.400;11.770;2023-04-06T01:52:01;4.40;56.50
14850;DHT22;7517;48.400;11.770;2023-04-06T01:54:32;4.40;56.50
14850;DHT22;7517;48.400;11.770;2023-04-06T01:57:01;4.30;56.50
14850;DHT22;7517;48.400;11.770;2023-04-06T01:59:28;4.30;56.60
14850;DHT22;7517;48.400;11.770;2023-04-06T02:01:56;4.30;56.80
14850;DHT22;7517;48.400;11.770;2023-04-06T02:04:23;4.30;56.90
14850;DHT22;7517;48.400;11.770;2023-04-06T02:06:51;4.30;56.90
14850;DHT22;7517;48.400;11.770;2023-04-06T02:09:19;4.30;56.80
14850;DHT22;7517;48.400;11.770;2023-04-06T02:11:46;4.30;56.90
14850;DHT22;7517;48.400;11.770;2023-04-06T02:14:14;4.20;57.00
14850;DHT22;7517;48.400;11.770;2023-04-06T02:16:44;4.20;57.10
14850;DHT22;7517;48.400;11.770;2023-04-06T02:19:11;4.20;57.30
14850;DHT22;7517;48.400;11.770;2023-04-06T02:21:40;4.20;57.40
14850;DHT22;7517;48.400;11.770;2023-04-06T02:24:07;4.20;57.50
14850;DHT22;7517;48.400;11.770;2023-04-06T02:26:35;4.20;57.50
14850;DHT22;7517;48.400;11.770;2023-04-06T02:29:02;4.20;57.40
14850;DHT22;7517;48.400;11.770;2023-04-06T02:31:32;4.20;57.40
14850;DHT22;7517;48.400;11.770;2023-04-06T02:34:00;4.20;57.40
14850;DHT22;7517;48.400;11.770;2023-04-06T02:36:30;4.20;57.80
14850;DHT22;7517;48.400;11.770;2023-04-06T02:38:59;4.20;57.30
14850;DHT22;7517;48.400;11.770;2023-04-06T02:41:29;4.20;57.30
14850;DHT22;7517;48.400;11.770;2023-04-06T02:44:01;4.10;57.20
14850;DHT22;7517;48.400;11.770;2023-04-06T02:46:35;4.10;57.10
14850;DHT22;7517;48.400;11.770;2023-04-06T02:49:02;4.10;57.10
14850;DHT22;7517;48.400;11.770;2023-04-06T02:51:31;4.00;57.10
14850;DHT22;7517;48.400;11.770;2023-04-06T02:54:01;4.00;57.20
14850;DHT22;7517;48.400;11.770;2023-04-06T02:56:28;3.90;57.10
14850;DHT22;7517;48.400;11.770;2023-04-06T02:58:55;3.90;57.20
14850;DHT22;7517;48.400;11.770;2023-04-06T03:01:23;3.90;57.20
14850;DHT22;7517;48.400;11.770;2023-04-06T03:03:52;3.80;57.20
14850;DHT22;7517;48.400;11.770;2023-04-06T03:06:21;3.80;57.30
14850;DHT22;7517;48.400;11.770;2023-04-06T03:08:50;3.80;57.30
14850;DHT22;7517;48.400;11.770;2023-04-06T03:11:21;3.70;57.30
14850;DHT22;7517;48.400;11.770;2023-04-06T03:13:48;3.70;57.40
14850;DHT22;7517;48.400;11.770;2023-04-06T03:16:18;3.70;57.40
14850;DHT22;7517;48.400;11.770;2023-04-06T03:18:47;3.70;57.50
14850;DHT22;7517;48.400;11.770;2023-04-06T03:21:21;3.70;57.60
14850;DHT22;7517;48.400;11.770;2023-04-06T03:23:48;3.60;57.70
14850;DHT22;7517;48.400;11.770;2023-04-06T03:26:16;3.60;57.70
14850;DHT22;7517;48.400;11.770;2023-04-06T03:28:44;3.60;57.70
14850;DHT22;7517;48.400;11.770;2023-04-06T03:31:12;3.60;57.70
14850;DHT22;7517;48.400;11.770;2023-04-06T03:33:39;3.60;57.80
14850;DHT22;7517;48.400;11.770;2023-04-06T03:36:07;3.50;57.70
14850;DHT22;7517;48.400;11.770;2023-04-06T03:38:36;3.50;57.90
14850;DHT22;7517;48.400;11.770;2023-04-06T03:41:05;3.50;58.00
14850;DHT22;7517;48.400;11.770;2023-04-06T03:43:32;3.50;58.00
14850;DHT22;7517;48.400;11.770;2023-04-06T03:46:00;3.50;58.20
14850;DHT22;7517;48.400;11.770;2023-04-06T03:48:27;3.50;58.20
14850;DHT22;7517;48.400;11.770;2023-04-06T03:50:55;3.50;58.20
14850;DHT22;7517;48.400;11.770;2023-04-06T03:53:22;3.50;58.30
14850;DHT22;7517;48.400;11.770;2023-04-06T03:55:52;3.50;58.30
14850;DHT22;7517;48.400;11.770;2023-04-06T03:58:19;3.50;58.40
14850;DHT22;7517;48.400;11.770;2023-04-06T04:00:46;3.50;58.50
14850;DHT22;7517;48.400;11.770;2023-04-06T04:03:14;3.50;58.60
14850;DHT22;7517;48.400;11.770;2023-04-06T04:05:42;3.50;58.60
14850;DHT22;7517;48.400;11.770;2023-04-06T04:08:10;3.50;58.60
14850;DHT22;7517;48.400;11.770;2023-04-06T04:10:37;3.40;58.50
14850;DHT22;7517;48.400;11.770;2023-04-06T04:13:07;3.50;58.60
14850;DHT22;7517;48.400;11.770;2023-04-06T04:15:34;3.40;58.50
14850;DHT22;7517;48.400;11.770;2023-04-06T04:18:02;3.40;58.50
14850;DHT22;7517;48.400;11.770;2023-04-06T04:20:30;3.40;58.70
14850;DHT22;7517;48.400;11.770;2023-04-06T04:22:58;3.40;58.80
14850;DHT22;7517;48.400;11.770;2023-04-06T04:25:25;3.40;58.80
14850;DHT22;7517;48.400;11.770;2023-04-06T04:27:53;3.30;58.80
14850;DHT22;7517;48.400;11.770;2023-04-06T04:30:22;3.30;59.00
14850;DHT22;7517;48.400;11.770;2023-04-06T04:32:50;3.30;59.00
14850;DHT22;7517;48.400;11.770;2023-04-06T04:35:19;3.30;59.00
14850;DHT22;7517;48.400;11.770;2023-04-06T04:37:47;3.20;58.90
14850;DHT22;7517;48.400;11.770;2023-04-06T04:40:15;3.30;59.00
14850;DHT22;7517;48.400;11.770;2023-04-06T04:42:43;3.20;58.90
14850;DHT22;7517;48.400;11.770;2023-04-06T04:45:11;3.20;59.00
14850;DHT22;7517;48.400;11.770;2023-04-06T04:47:39;3.20;59.10
14850;DHT22;7517;48.400;11.770;2023-04-06T04:50:07;3.20;59.30
14850;DHT22;7517;48.400;11.770;2023-04-06T04:52:36;3.20;59.40
14850;DHT22;7517;48.400;11.770;2023-04-06T04:55:05;3.20;59.30
14850;DHT22;7517;48.400;11.770;2023-04-06T04:57:33;3.20;59.40
14850;DHT22;7517;48.400;11.770;2023-04-06T05:00:00;3.10;59.30
14850;DHT22;7517;48.400;11.770;2023-04-06T05:02:28;3.10;59.40
14850;DHT22;7517;48.400;11.770;2023-04-06T05:04:57;3.10;59.60
14850;DHT22;7517;48.400;11.770;2023-04-06T05:07:25;3.20;59.70
14850;DHT22;7517;48.400;11.770;2023-04-06T05:09:52;3.10;59.60
14850;DHT22;7517;48.400;11.770;2023-04-06T05:12:20;3.10;60.10
14850;DHT22;7517;48.400;11.770;2023-04-06T05:14:48;3.10;59.50
14850;DHT22;7517;48.400;11.770;2023-04-06T05:17:15;3.10;59.60
14850;DHT22;7517;48.400;11.770;2023-04-06T05:19:43;3.20;59.70
14850;DHT22;7517;48.400;11.770;2023-04-06T05:22:13;3.20;59.80
14850;DHT22;7517;48.400;11.770;2023-04-06T05:24:43;3.20;59.90
14850;DHT22;7517;48.400;11.770;2023-04-06T05:27:10;3.20;59.80
14850;DHT22;7517;48.400;11.770;2023-04-06T05:29:38;3.20;59.90
14850;DHT22;7517;48.400;11.770;2023-04-06T05:32:06;3.20;60.00
14850;DHT22;7517;48.400;11.770;2023-04-06T05:34:34;3.20;60.00
14850;DHT22;7517;48.400;11.770;2023-04-06T05:37:02;3.20;60.10
14850;DHT22;7517;48.400;11.770;2023-04-06T05:39:31;3.30;60.30
14850;DHT22;7517;48.400;11.770;2023-04-06T05:42:03;3.30;60.60
14850;DHT22;7517;48.400;11.770;2023-04-06T05:44:32;3.40;60.80
14850;DHT22;7517;48.400;11.770;2023-04-06T05:47:00;3.40;60.70
14850;DHT22;7517;48.400;11.770;2023-04-06T05:49:29;3.40;60.90
14850;DHT22;7517;48.400;11.770;2023-04-06T05:51:57;3.40;61.40
14850;DHT22;7517;48.400;11.770;2023-04-06T05:54:26;3.50;61.10
14850;DHT22;7517;48.400;11.770;2023-04-06T05:56:55;3.70;62.00
14850;DHT22;7517;48.400;11.770;2023-04-06T05:59:23;3.60;61.20
14850;DHT22;7517;48.400;11.770;2023-04-06T06:01:50;3.60;61.30
14850;DHT22;7517;48.400;11.770;2023-04-06T06:04:18;3.70;61.40
14850;DHT22;7517;48.400;11.770;2023-04-06T06:06:45;3.70;61.40
14850;DHT22;7517;48.400;11.770;2023-04-06T06:09:13;3.80;61.40
14850;DHT22;7517;48.400;11.770;2023-04-06T06:11:41;3.80;61.50
14850;DHT22;7517;48.400;11.770;2023-04-06T06:14:10;3.80;61.40
14850;DHT22;7517;48.400;11.770;2023-04-06T06:16:37;3.90;61.50
14850;DHT22;7517;48.400;11.770;2023-04-06T06:19:05;3.90;61.50
14850;DHT22;7517;48.400;11.770;2023-04-06T06:21:33;4.00;61.70
14850;DHT22;7517;48.400;11.770;2023-04-06T06:24:03;4.00;61.70
14850;DHT22;7517;48.400;11.770;2023-04-06T06:26:31;4.10;61.80
14850;DHT22;7517;48.400;11.770;2023-04-06T06:28:58;4.10;61.70
14850;DHT22;7517;48.400;11.770;2023-04-06T06:31:27;4.20;61.80
14850;DHT22;7517;48.400;11.770;2023-04-06T06:33:55;4.30;61.80
14850;DHT22;7517;48.400;11.770;2023-04-06T06:36:25;4.30;61.70
14850;DHT22;7517;48.400;11.770;2023-04-06T06:38:53;4.40;61.70
14850;DHT22;7517;48.400;11.770;2023-04-06T06:41:21;4.40;61.60
14850;DHT22;7517;48.400;11.770;2023-04-06T06:43:48;4.50;61.50
14850;DHT22;7517;48.400;11.770;2023-04-06T06:46:16;4.60;61.50
14850;DHT22;7517;48.400;11.770;2023-04-06T06:48:45;4.60;61.20
14850;DHT22;7517;48.400;11.770;2023-04-06T06:51:12;4.70;61.30
14850;DHT22;7517;48.400;11.770;2023-04-06T06:53:40;4.70;61.20
14850;DHT22;7517;48.400;11.770;2023-04-06T06:56:08;4.80;61.10
14850;DHT22;7517;48.400;11.770;2023-04-06T06:58:35;4.90;61.20
14850;DHT22;7517;48.400;11.770;2023-04-06T07:01:03;4.90;61.00
14850;DHT22;7517;48.400;11.770;2023-04-06T07:03:31;5.00;61.00
14850;DHT22;7517;48.400;11.770;2023-04-06T07:06:00;5.00;60.80
14850;DHT22;7517;48.400;11.770;2023-04-06T07:08:28;5.10;60.60
14850;DHT22;7517;48.400;11.770;2023-04-06T07:10:55;5.20;60.60
14850;DHT22;7517;48.400;11.770;2023-04-06T07:13:23;5.30;60.70
14850;DHT22;7517;48.400;11.770;2023-04-06T07:15:53;5.30;60.80
14850;DHT22;7517;48.400;11.770;2023-04-06T07:18:21;5.40;60.70
14850;DHT22;7517;48.400;11.770;2023-04-06T07:20:50;5.50;60.80
14850;DHT22;7517;48.400;11.770;2023-04-06T07:23:19;5.60;60.60
14850;DHT22;7517;48.400;11.770;2023-04-06T07:25:47;5.70;60.50
14850;DHT22;7517;48.400;11.770;2023-04-06T07:28:17;5.90;60.40
14850;DHT22;7517;48.400;11.770;2023-04-06T07:30:47;6.00;60.50
14850;DHT22;7517;48.400;11.770;2023-04-06T07:33:14;6.10;60.50
14850;DHT22;7517;48.400;11.770;2023-04-06T07:35:42;6.30;60.60
14850;DHT22;7517;48.400;11.770;2023-04-06T07:38:09;6.40;60.50
14850;DHT22;7517;48.400;11.770;2023-04-06T07:40:43;6.60;60.20
14850;DHT22;7517;48.400;11.770;2023-04-06T07:43:11;6.80;60.00
14850;DHT22;7517;48.400;11.770;2023-04-06T07:45:39;7.00;59.80
14850;DHT22;7517;48.400;11.770;2023-04-06T07:48:06;7.20;59.80
14850;DHT22;7517;48.400;11.770;2023-04-06T07:50:34;7.40;59.70
14850;DHT22;7517;48.400;11.770;2023-04-06T07:53:02;7.60;59.50
14850;DHT22;7517;48.400;11.770;2023-04-06T07:55:29;7.80;59.50
14850;DHT22;7517;48.400;11.770;2023-04-06T07:57:58;8.00;59.50
14850;DHT22;7517;48.400;11.770;2023-04-06T08:00:26;8.20;59.30
14850;DHT22;7517;48.400;11.770;2023-04-06T08:02:53;8.40;59.30
14850;DHT22;7517;48.400;11.770;2023-04-06T08:05:21;8.60;59.10
14850;DHT22;7517;48.400;11.770;2023-04-06T08:07:49;8.80;59.00
14850;DHT22;7517;48.400;11.770;2023-04-06T08:10:17;9.00;58.30
14850;DHT22;7517;48.400;11.770;2023-04-06T08:12:45;9.20;58.00
14850;DHT22;7517;48.400;11.770;2023-04-06T08:15:14;9.50;57.60
14850;DHT22;7517;48.400;11.770;2023-04-06T08:17:43;9.70;56.90
14850;DHT22;7517;48.400;11.770;2023-04-06T08:20:11;9.80;56.50
14850;DHT22;7517;48.400;11.770;2023-04-06T08:22:39;10.00;56.40
14850;DHT22;7517;48.400;11.770;2023-04-06T08:25:06;10.20;56.00
14850;DHT22;7517;48.400;11.770;2023-04-06T08:27:34;10.50;55.80
14850;DHT22;7517;48.400;11.770;2023-04-06T08:30:04;10.70;55.30
14850;DHT22;7517;48.400;11.770;2023-04-06T08:32:34;10.90;54.70
14850;DHT22;7517;48.400;11.770;2023-04-06T08:35:02;11.10;54.50
14850;DHT22;7517;48.400;11.770;2023-04-06T08:37:29;11.30;54.40
14850;DHT22;7517;48.400;11.770;2023-04-06T08:39:58;11.50;54.20
14850;DHT22;7517;48.400;11.770;2023-04-06T08:42:26;11.70;53.90
14850;DHT22;7517;48.400;11.770;2023-04-06T08:44:59;11.90;53.40
14850;DHT22;7517;48.400;11.770;2023-04-06T08:47:27;12.10;52.50
14850;DHT22;7517;48.400;11.770;2023-04-06T08:49:56;12.40;52.50
14850;DHT22;7517;48.400;11.770;2023-04-06T08:52:29;12.60;52.50
14850;DHT22;7517;48.400;11.770;2023-04-06T08:54:58;12.80;52.30
14850;DHT22;7517;48.400;11.770;2023-04-06T08:57:26;13.00;52.40
14850;DHT22;7517;48.400;11.770;2023-04-06T08:59:55;13.20;52.00
14850;DHT22;7517;48.400;11.770;2023-04-06T09:02:24;13.40;51.40
14850;DHT22;7517;48.400;11.770;2023-04-06T09:04:53;13.50;51.00
14850;DHT22;7517;48.400;11.770;2023-04-06T09:07:24;13.70;49.90
14850;DHT22;7517;48.400;11.770;2023-04-06T09:09:52;13.80;48.90
14850;DHT22;7517;48.400;11.770;2023-04-06T09:12:24;14.00;48.60
14850;DHT22;7517;48.400;11.770;2023-04-06T09:14:54;14.10;48.50
14850;DHT22;7517;48.400;11.770;2023-04-06T09:17:25;14.10;48.60
14850;DHT22;7517;48.400;11.770;2023-04-06T09:19:56;14.30;48.30
14850;DHT22;7517;48.400;11.770;2023-04-06T09:22:24;14.50;48.70
14850;DHT22;7517;48.400;11.770;2023-04-06T09:24:54;14.60;48.70
14850;DHT22;7517;48.400;11.770;2023-04-06T09:27:30;14.80;48.50
14850;DHT22;7517;48.400;11.770;2023-04-06T09:30:06;15.00;47.80
14850;DHT22;7517;48.400;11.770;2023-04-06T09:32:46;15.20;47.70
14850;DHT22;7517;48.400;11.770;2023-04-06T09:35:20;15.40;47.00
14850;DHT22;7517;48.400;11.770;2023-04-06T09:38:11;15.60;47.30
14850;DHT22;7517;48.400;11.770;2023-04-06T09:40:50;15.80;46.00
14850;DHT22;7517;48.400;11.770;2023-04-06T09:43:24;16.00;46.60
14850;DHT22;7517;48.400;11.770;2023-04-06T09:45:55;16.20;46.80
14850;DHT22;7517;48.400;11.770;2023-04-06T09:48:25;16.60;44.50
14850;DHT22;7517;48.400;11.770;2023-04-06T09:51:00;16.80;45.80
14850;DHT22;7517;48.400;11.770;2023-04-06T09:53:31;17.10;45.90
14850;DHT22;7517;48.400;11.770;2023-04-06T09:56:09;17.40;46.30
14850;DHT22;7517;48.400;11.770;2023-04-06T09:58:41;17.70;46.10
14850;DHT22;7517;48.400;11.770;2023-04-06T10:01:15;18.00;45.40
14850;DHT22;7517;48.400;11.770;2023-04-06T10:04:07;18.20;45.20
14850;DHT22;7517;48.400;11.770;2023-04-06T10:06:45;18.50;45.20
14850;DHT22;7517;48.400;11.770;2023-04-06T10:09:18;18.80;45.10
14850;DHT22;7517;48.400;11.770;2023-04-06T10:11:52;19.00;44.80
14850;DHT22;7517;48.400;11.770;2023-04-06T10:14:19;19.30;44.20
14850;DHT22;7517;48.400;11.770;2023-04-06T10:16:48;19.40;43.20
14850;DHT22;7517;48.400;11.770;2023-04-06T10:19:21;19.60;42.00
14850;DHT22;7517;48.400;11.770;2023-04-06T10:21:57;19.70;41.70
14850;DHT22;7517;48.400;11.770;2023-04-06T10:24:30;19.80;41.80
14850;DHT22;7517;48.400;11.770;2023-04-06T10:26:58;19.80;41.90
14850;DHT22;7517;48.400;11.770;2023-04-06T10:29:28;19.90;42.00
14850;DHT22;7517;48.400;11.770;2023-04-06T10:32:04;20.00;41.50
14850;DHT22;7517;48.400;11.770;2023-04-06T10:34:34;20.20;40.90
14850;DHT22;7517;48.400;11.770;2023-04-06T10:37:13;20.20;40.40
14850;DHT22;7517;48.400;11.770;2023-04-06T10:39:49;20.20;39.70
14850;DHT22;7517;48.400;11.770;2023-04-06T10:42:24;20.30;39.80
14850;DHT22;7517;48.400;11.770;2023-04-06T10:44:51;20.40;40.10
14850;DHT22;7517;48.400;11.770;2023-04-06T10:47:20;20.40;39.90
14850;DHT22;7517;48.400;11.770;2023-04-06T10:49:47;20.40;39.40
14850;DHT22;7517;48.400;11.770;2023-04-06T10:52:16;20.30;39.40
14850;DHT22;7517;48.400;11.770;2023-04-06T10:54:44;20.30;37.90
14850;DHT22;7517;48.400;11.770;2023-04-06T10:57:13;20.10;37.10
14850;DHT22;7517;48.400;11.770;2023-04-06T10:59:43;19.80;37.00
14850;DHT22;7517;48.400;11.770;2023-04-06T11:02:19;19.50;36.70
14850;DHT22;7517;48.400;11.770;2023-04-06T11:04:58;19.30;36.70
14850;DHT22;7517;48.400;11.770;2023-04-06T11:07:28;19.00;36.90
14850;DHT22;7517;48.400;11.770;2023-04-06T11:09:56;18.80;37.20
14850;DHT22;7517;48.400;11.770;2023-04-06T11:12:24;18.50;37.10
14850;DHT22;7517;48.400;11.770;2023-04-06T11:14:54;18.30;37.00
14850;DHT22;7517;48.400;11.770;2023-04-06T11:17:28;18.10;36.80
14850;DHT22;7517;48.400;11.770;2023-04-06T11:19:56;17.80;37.10
14850;DHT22;7517;48.400;11.770;2023-04-06T11:22:25;17.60;37.80
14850;DHT22;7517;48.400;11.770;2023-04-06T11:25:04;17.40;38.00
14850;DHT22;7517;48.400;11.770;2023-04-06T11:27:33;17.30;38.30
14850;DHT22;7517;48.400;11.770;2023-04-06T11:30:02;17.20;38.80
14850;DHT22;7517;48.400;11.770;2023-04-06T11:32:38;17.10;38.60
14850;DHT22;7517;48.400;11.770;2023-04-06T11:35:10;17.00;38.40
14850;DHT22;7517;48.400;11.770;2023-04-06T11:37:43;16.90;38.20
14850;DHT22;7517;48.400;11.770;2023-04-06T11:40:10;16.80;37.90
14850;DHT22;7517;48.400;11.770;2023-04-06T11:42:38;16.70;38.20
14850;DHT22;7517;48.400;11.770;2023-04-06T11:45:10;16.60;38.50
14850;DHT22;7517;48.400;11.770;2023-04-06T11:47:42;16.50;38.60
14850;DHT22;7517;48.400;11.770;2023-04-06T11:50:12;16.50;38.50
14850;DHT22;7517;48.400;11.770;2023-04-06T11:52:44;16.50;39.00
14850;DHT22;7517;48.400;11.770;2023-04-06T11:55:14;16.50;39.00
14850;DHT22;7517;48.400;11.770;2023-04-06T11:57:43;16.50;39.00
14850;DHT22;7517;48.400;11.770;2023-04-06T12:00:12;16.50;38.90
14850;DHT22;7517;48.400;11.770;2023-04-06T12:02:45;16.50;39.20
14850;DHT22;7517;48.400;11.770;2023-04-06T12:05:14;16.50;39.30
14850;DHT22;7517;48.400;11.770;2023-04-06T12:07:43;16.50;38.50
14850;DHT22;7517;48.400;11.770;2023-04-06T12:10:11;15.70;38.40
14850;DHT22;7517;48.400;11.770;2023-04-06T12:12:39;16.50;38.80
14850;DHT22;7517;48.400;11.770;2023-04-06T12:15:07;16.60;39.00
14850;DHT22;7517;48.400;11.770;2023-04-06T12:17:37;16.60;39.10
14850;DHT22;7517;48.400;11.770;2023-04-06T12:20:05;16.60;39.00
14850;DHT22;7517;48.400;11.770;2023-04-06T12:22:33;16.70;38.70
14850;DHT22;7517;48.400;11.770;2023-04-06T12:25:04;16.80;38.70
14850;DHT22;7517;48.400;11.770;2023-04-06T12:27:32;16.80;38.50
14850;DHT22;7517;48.400;11.770;2023-04-06T12:30:01;16.80;38.70
14850;DHT22;7517;48.400;11.770;2023-04-06T12:32:29;16.90;38.80
14850;DHT22;7517;48.400;11.770;2023-04-06T12:34:58;16.90;37.70
14850;DHT22;7517;48.400;11.770;2023-04-06T12:37:27;16.80;38.00
14850;DHT22;7517;48.400;11.770;2023-04-06T12:39:54;16.80;38.00
14850;DHT22;7517;48.400;11.770;2023-04-06T12:42:23;16.70;37.80
14850;DHT22;7517;48.400;11.770;2023-04-06T12:44:51;16.60;37.70
14850;DHT22;7517;48.400;11.770;2023-04-06T12:47:18;16.60;38.00
14850;DHT22;7517;48.400;11.770;2023-04-06T12:49:46;16.50;37.90
14850;DHT22;7517;48.400;11.770;2023-04-06T12:52:14;16.50;38.30
14850;DHT22;7517;48.400;11.770;2023-04-06T12:54:42;16.40;38.40
14850;DHT22;7517;48.400;11.770;2023-04-06T12:57:10;16.40;38.60
14850;DHT22;7517;48.400;11.770;2023-04-06T12:59:42;16.40;38.60
14850;DHT22;7517;48.400;11.770;2023-04-06T13:02:10;16.30;37.90
14850;DHT22;7517;48.400;11.770;2023-04-06T13:04:38;16.20;38.30
14850;DHT22;7517;48.400;11.770;2023-04-06T13:07:06;16.20;38.20
14850;DHT22;7517;48.400;11.770;2023-04-06T13:09:33;16.10;38.30
14850;DHT22;7517;48.400;11.770;2023-04-06T13:12:01;16.10;38.00
14850;DHT22;7517;48.400;11.770;2023-04-06T13:14:28;16.00;38.40
14850;DHT22;7517;48.400;11.770;2023-04-06T13:16:59;16.00;38.80
14850;DHT22;7517;48.400;11.770;2023-04-06T13:19:27;16.00;38.60
14850;DHT22;7517;48.400;11.770;2023-04-06T13:21:58;16.00;38.50
14850;DHT22;7517;48.400;11.770;2023-04-06T13:24:25;16.10;38.50
14850;DHT22;7517;48.400;11.770;2023-04-06T13:26:52;16.10;38.40
14850;DHT22;7517;48.400;11.770;2023-04-06T13:29:20;16.10;38.20
14850;DHT22;7517;48.400;11.770;2023-04-06T13:31:48;16.10;38.20
14850;DHT22;7517;48.400;11.770;2023-04-06T13:34:17;16.10;38.20
14850;DHT22;7517;48.400;11.770;2023-04-06T13:36:47;16.10;38.30
14850;DHT22;7517;48.400;11.770;2023-04-06T13:39:15;16.10;38.60
14850;DHT22;7517;48.400;11.770;2023-04-06T13:45:25;16.00;38.10
14850;DHT22;7517;48.400;11.770;2023-04-06T13:47:56;16.10;38.30
14850;DHT22;7517;48.400;11.770;2023-04-06T13:50:27;16.10;38.20
14850;DHT22;7517;48.400;11.770;2023-04-06T13:52:55;16.20;38.10
14850;DHT22;7517;48.400;11.770;2023-04-06T13:55:23;16.30;37.90
14850;DHT22;7517;48.400;11.770;2023-04-06T13:57:50;16.30;37.90
14850;DHT22;7517;48.400;11.770;2023-04-06T14:00:18;16.40;37.90
14850;DHT22;7517;48.400;11.770;2023-04-06T14:02:46;16.40;38.00
14850;DHT22;7517;48.400;11.770;2023-04-06T14:05:30;16.50;37.80
14850;DHT22;7517;48.400;11.770;2023-04-06T14:08:08;16.30;37.80
14850;DHT22;7517;48.400;11.770;2023-04-06T14:10:37;16.60;37.70
14850;DHT22;7517;48.400;11.770;2023-04-06T14:13:05;16.60;37.30
14850;DHT22;7517;48.400;11.770;2023-04-06T14:15:33;16.60;37.50
14850;DHT22;7517;48.400;11.770;2023-04-06T14:18:01;16.60;37.10
14850;DHT22;7517;48.400;11.770;2023-04-06T14:20:30;16.50;37.30
14850;DHT22;7517;48.400;11.770;2023-04-06T14:22:59;16.50;37.40
14850;DHT22;7517;48.400;11.770;2023-04-06T14:25:27;16.50;37.30
14850;DHT22;7517;48.400;11.770;2023-04-06T14:27:56;16.40;37.30
14850;DHT22;7517;48.400;11.770;2023-04-06T14:30:24;16.40;37.30
14850;DHT22;7517;48.400;11.770;2023-04-06T14:32:53;16.30;37.50
14850;DHT22;7517;48.400;11.770;2023-04-06T14:35:23;16.30;37.60
14850;DHT22;7517;48.400;11.770;2023-04-06T14:37:58;16.30;37.60
14850;DHT22;7517;48.400;11.770;2023-04-06T14:40:26;16.20;37.40
14850;DHT22;7517;48.400;11.770;2023-04-06T14:42:54;16.30;37.50
14850;DHT22;7517;48.400;11.770;2023-04-06T14:45:22;16.30;37.50
14850;DHT22;7517;48.400;11.770;2023-04-06T14:47:49;16.40;37.60
14850;DHT22;7517;48.400;11.770;2023-04-06T14:50:16;16.40;37.50
14850;DHT22;7517;48.400;11.770;2023-04-06T14:52:44;16.40;37.30
14850;DHT22;7517;48.400;11.770;2023-04-06T14:55:14;16.50;37.20
14850;DHT22;7517;48.400;11.770;2023-04-06T14:57:42;16.50;37.10
14850;DHT22;7517;48.400;11.770;2023-04-06T15:00:10;16.50;37.40
14850;DHT22;7517;48.400;11.770;2023-04-06T15:02:39;16.50;37.10
14850;DHT22;7517;48.400;11.770;2023-04-06T15:05:09;16.60;37.50
14850;DHT22;7517;48.400;11.770;2023-04-06T15:07:36;16.60;37.30
14850;DHT22;7517;48.400;11.770;2023-04-06T15:10:04;16.60;36.80
14850;DHT22;7517;48.400;11.770;2023-04-06T15:12:37;16.60;36.70
14850;DHT22;7517;48.400;11.770;2023-04-06T15:15:05;16.70;36.40
14850;DHT22;7517;48.400;11.770;2023-04-06T15:17:33;16.70;36.60
14850;DHT22;7517;48.400;11.770;2023-04-06T15:20:01;16.70;36.30
14850;DHT22;7517;48.400;11.770;2023-04-06T15:22:30;16.60;36.50
14850;DHT22;7517;48.400;11.770;2023-04-06T15:24:57;16.60;36.50
14850;DHT22;7517;48.400;11.770;2023-04-06T15:27:25;16.60;36.60
14850;DHT22;7517;48.400;11.770;2023-04-06T15:29:55;16.60;36.80
14850;DHT22;7517;48.400;11.770;2023-04-06T15:32:24;16.50;36.60
14850;DHT22;7517;48.400;11.770;2023-04-06T15:34:52;16.50;36.50
14850;DHT22;7517;48.400;11.770;2023-04-06T15:37:20;16.50;36.20
14850;DHT22;7517;48.400;11.770;2023-04-06T15:39:47;16.50;35.80
14850;DHT22;7517;48.400;11.770;2023-04-06T15:42:14;16.50;36.10
14850;DHT22;7517;48.400;11.770;2023-04-06T15:44:42;16.50;36.20
14850;DHT22;7517;48.400;11.770;2023-04-06T15:47:11;16.50;36.30
14850;DHT22;7517;48.400;11.770;2023-04-06T15:49:38;16.50;36.10
14850;DHT22;7517;48.400;11.770;2023-04-06T15:52:05;16.50;36.00
14850;DHT22;7517;48.400;11.770;2023-04-06T15:54:33;16.50;36.00